createdAt,value
2022-10-22T00:07:06.719Z,8.77
2022-10-22T00:17:11.668Z,8.72
2022-10-22T00:27:15.567Z,8.48
2022-10-22T00:37:19.537Z,8.10
2022-10-22T00:47:25.761Z,7.85
2022-10-22T00:57:29.423Z,7.56
2022-10-22T01:07:39.958Z,7.55
2022-10-22T01:18:08.583Z,7.52
2022-10-22T01:28:15.168Z,7.37
2022-10-22T01:38:24.964Z,7.24
2022-10-22T01:48:43.747Z,7.11
2022-10-22T01:59:04.687Z,7.00
2022-10-22T02:09:09.945Z,6.86
2022-10-22T02:19:39.688Z,6.70
2022-10-22T02:29:58.352Z,6.65
2022-10-22T02:40:02.332Z,6.51
2022-10-22T02:50:09.533Z,6.18
2022-10-22T03:00:14.619Z,5.83
2022-10-22T03:10:18.141Z,5.75
2022-10-22T03:20:21.805Z,5.57
2022-10-22T03:30:25.576Z,5.48
2022-10-22T03:40:29.457Z,5.44
2022-10-22T03:50:33.512Z,5.34
2022-10-22T04:00:37.473Z,5.16
2022-10-22T04:10:40.951Z,5.07
2022-10-22T04:20:44.517Z,5.10
2022-10-22T04:30:48.174Z,4.94
2022-10-22T04:40:51.947Z,4.82
2022-10-22T04:50:58.279Z,4.78
2022-10-22T05:01:09.633Z,4.72
2022-10-22T05:11:19.543Z,4.75
2022-10-22T05:21:24.207Z,4.72
2022-10-22T05:31:29.257Z,4.60
2022-10-22T05:41:34.693Z,4.55
2022-10-22T05:51:38.491Z,4.70
2022-10-22T06:01:42.682Z,5.08
2022-10-22T06:11:47.863Z,5.31
2022-10-22T06:21:51.618Z,5.64
2022-10-22T06:31:55.308Z,6.02
2022-10-22T06:41:59.380Z,6.39
2022-10-22T06:52:05.083Z,6.85
2022-10-22T07:02:10.488Z,7.30
2022-10-22T07:12:14.658Z,7.77
2022-10-22T07:22:19.581Z,8.36
2022-10-22T07:32:23.973Z,9.14
2022-10-22T07:42:27.692Z,9.97
2022-10-22T07:52:31.665Z,10.83
2022-10-22T08:02:35.857Z,11.79
2022-10-22T08:12:40.526Z,12.69
2022-10-22T08:22:44.715Z,13.39
2022-10-22T08:32:53.037Z,13.91
2022-10-22T08:43:14.459Z,14.34
2022-10-22T08:53:21.810Z,14.89
2022-10-22T09:03:32.467Z,15.32
2022-10-22T09:13:36.718Z,15.53
2022-10-22T09:24:05.039Z,15.52
2022-10-22T09:34:08.728Z,15.43
2022-10-22T09:44:13.999Z,15.50
2022-10-22T09:54:43.061Z,15.59
2022-10-22T10:04:48.241Z,15.78
2022-10-22T10:15:28.081Z,15.80
2022-10-22T10:26:13.253Z,15.75
2022-10-22T10:36:37.276Z,15.78
2022-10-22T10:47:19.325Z,15.84
2022-10-22T10:58:01.471Z,15.70
2022-10-22T11:08:18.674Z,15.65
2022-10-22T11:18:33.460Z,15.48
2022-10-22T11:28:51.349Z,15.31
2022-10-22T11:38:55.216Z,15.31
2022-10-22T11:49:14.103Z,15.29
2022-10-22T11:59:39.694Z,15.15
2022-10-22T12:09:43.734Z,14.90
2022-10-22T12:20:02.488Z,14.74
2022-10-22T12:30:17.523Z,14.77
2022-10-22T12:40:24.059Z,14.78
2022-10-22T12:50:42.179Z,14.69
2022-10-22T13:00:47.833Z,14.51
2022-10-22T13:10:54.739Z,14.43
2022-10-22T13:21:02.881Z,14.40
2022-10-22T13:31:21.966Z,14.42
2022-10-22T13:41:28.465Z,14.37
2022-10-22T13:51:35.677Z,14.28
2022-10-22T14:01:40.137Z,14.30
2022-10-22T14:11:44.798Z,14.32
2022-10-22T14:21:49.599Z,14.11
2022-10-22T14:31:55.120Z,14.01
2022-10-22T14:41:59.198Z,13.87
2022-10-22T14:52:04.240Z,13.83
2022-10-22T15:02:14.159Z,13.83
2022-10-22T15:12:18.935Z,13.84
2022-10-22T15:22:23.511Z,13.71
2022-10-22T15:32:29.659Z,13.59
2022-10-22T15:42:33.662Z,13.52
2022-10-22T15:52:37.425Z,13.46
2022-10-22T16:02:42.019Z,13.34
2022-10-22T16:12:45.832Z,13.34
2022-10-22T16:22:50.883Z,13.34
2022-10-22T16:32:54.642Z,13.39
2022-10-22T16:42:59.757Z,13.40
2022-10-22T16:53:04.539Z,13.35
2022-10-22T17:03:11.883Z,13.28
2022-10-22T17:13:16.997Z,13.27
2022-10-22T17:23:21.463Z,13.29
2022-10-22T17:33:29.667Z,13.32
2022-10-22T17:43:36.836Z,13.32
2022-10-22T17:53:47.218Z,13.34
2022-10-22T18:03:55.818Z,13.34
2022-10-22T18:14:00.086Z,13.31
2022-10-22T18:24:05.418Z,13.30
2022-10-22T18:34:10.655Z,13.25
2022-10-22T18:44:16.779Z,13.25
2022-10-22T18:54:26.079Z,13.27
2022-10-22T19:04:37.641Z,13.30
2022-10-22T19:14:43.187Z,13.31
2022-10-22T19:24:51.930Z,13.29
2022-10-22T19:34:59.358Z,13.27
2022-10-22T19:45:09.039Z,13.24
2022-10-22T19:55:14.783Z,13.28
2022-10-22T20:05:19.727Z,13.25
2022-10-22T20:15:25.409Z,13.25
2022-10-22T20:25:29.958Z,13.27
2022-10-22T20:35:33.845Z,13.17
2022-10-22T20:45:38.491Z,13.12
2022-10-22T20:55:43.485Z,13.12
2022-10-22T21:05:49.737Z,13.10
2022-10-22T21:15:53.843Z,13.07
2022-10-22T21:25:58.501Z,13.01
2022-10-22T21:36:02.179Z,12.88
2022-10-22T21:46:08.239Z,12.86
2022-10-22T21:56:18.210Z,12.87
2022-10-22T22:06:23.920Z,12.82
2022-10-22T22:16:30.970Z,12.81
2022-10-22T22:26:35.420Z,12.78
2022-10-22T22:36:41.468Z,12.77
2022-10-22T22:46:45.328Z,12.71
2022-10-22T22:56:50.533Z,12.75
2022-10-22T23:06:54.310Z,12.76
2022-10-22T23:16:58.563Z,12.83
2022-10-22T23:27:04.427Z,12.92
2022-10-22T23:37:10.065Z,12.94
2022-10-22T23:47:13.890Z,12.93
2022-10-22T23:57:18.051Z,13.00
